Terminal Aerodrome Forecast
Issued by NWS Duluth, MN

Home | Current Version | Previous Version | Text Only | Print | Product List | Glossary On
Versions: 1 2 3 4 5 6 7 8 9 10 11 12 13 14 15 16 17
000
FTUS43 KDLH 202328
TAFINL
TAF
KINL 202328Z 2100/2124 18011G18KT P6SM BKN200 WS020/19040KT
     FM210400 17011KT P6SM BKN200
     FM211100 17011KT P6SM VCSH OVC080
     FM211500 18012G20KT P6SM VCSH OVC025
     FM211900 18012G20KT P6SM VCSH OVC020
     FM212100 18011G18KT 6SM -SHRA OVC020=

USA.gov is the U.S. government's official web portal to all federal, state and local government web resources and services.